Time;durP1;ratioP1;P1;durP2;ratioP2;P2;SDS_P1;SDS_P2;PMS_P1;PMS_P2;Temp;Humidity;BMP_temperature;BMP_pressure;BME280_temperature;BME280_humidity;BME280_pressure;Samples;Min_cycle;Max_cycle;Signal;HPM_P1;HPM_P2
2022/07/27 00:01:27;;;;;;;1.38;1.20;;;13.60;99.90;;;;;;4918702;28;93197;-31
2022/07/27 00:03:53;;;;;;;2.60;1.65;;;13.60;99.90;;;;;;4918475;28;92938;-32
2022/07/27 00:06:18;;;;;;;4.20;2.38;;;13.50;99.90;;;;;;4919008;28;94034;-32
2022/07/27 00:08:44;;;;;;;4.43;1.95;;;13.50;99.90;;;;;;4917475;28;94428;-32
2022/07/27 00:11:10;;;;;;;3.05;1.65;;;13.50;99.90;;;;;;4918494;28;93501;-34
2022/07/27 00:13:36;;;;;;;6.07;1.90;;;13.50;99.90;;;;;;4953636;23;95060;-30
2022/07/27 00:16:02;;;;;;;3.88;1.92;;;13.50;99.90;;;;;;4918663;28;95167;-34
2022/07/27 00:18:28;;;;;;;3.65;2.40;;;13.50;99.90;;;;;;4918355;28;94967;-29
2022/07/27 00:20:53;;;;;;;4.70;1.88;;;13.50;99.90;;;;;;4917838;28;92669;-30
2022/07/27 00:23:19;;;;;;;2.15;1.90;;;13.50;99.90;;;;;;4918237;28;92191;-31
2022/07/27 00:25:45;;;;;;;2.83;2.38;;;13.50;99.90;;;;;;4917819;28;95203;-30
2022/07/27 00:28:10;;;;;;;1.85;1.73;;;13.40;99.90;;;;;;4917951;28;94458;-31
2022/07/27 00:30:36;;;;;;;9.65;2.70;;;13.40;99.90;;;;;;4918961;28;92308;-30
2022/07/27 00:33:02;;;;;;;1.67;1.58;;;13.30;99.90;;;;;;4917501;28;93511;-30
2022/07/27 00:35:28;;;;;;;5.50;1.88;;;13.30;99.90;;;;;;4918331;28;95883;-29
2022/07/27 00:37:53;;;;;;;4.30;2.53;;;13.30;99.90;;;;;;4917372;28;95286;-31
2022/07/27 00:40:19;;;;;;;2.03;1.63;;;13.30;99.90;;;;;;4918707;28;94739;-33
2022/07/27 00:42:44;;;;;;;5.75;2.13;;;13.30;99.90;;;;;;4918454;28;93577;-33
2022/07/27 00:45:10;;;;;;;5.70;1.65;;;13.30;99.90;;;;;;4917356;28;94838;-33
2022/07/27 00:47:36;;;;;;;2.22;1.65;;;13.20;99.90;;;;;;4917701;28;95353;-30
2022/07/27 00:50:03;;;;;;;2.47;1.77;;;13.20;99.90;;;;;;4918094;28;94332;-31
2022/07/27 00:52:29;;;;;;;3.70;1.88;;;13.20;99.90;;;;;;4917793;28;93879;-33
2022/07/27 00:54:55;;;;;;;2.70;1.90;;;13.20;99.90;;;;;;4918213;28;94093;-30
2022/07/27 00:57:21;;;;;;;2.75;1.95;;;13.20;99.90;;;;;;4916619;28;93849;-32
2022/07/27 00:59:47;;;;;;;3.05;2.10;;;13.20;99.90;;;;;;4916556;28;93133;-32
2022/07/27 01:02:12;;;;;;;4.53;1.85;;;13.20;99.90;;;;;;4916836;28;93061;-32
2022/07/27 01:04:38;;;;;;;4.32;2.40;;;13.20;99.90;;;;;;4918201;28;94759;-29
2022/07/27 01:07:04;;;;;;;4.32;2.58;;;13.20;99.90;;;;;;4917609;28;96438;-30
2022/07/27 01:12:17;;;;;;;3.60;2.10;;;13.20;99.90;;;;;;4917713;28;94363;-32
2022/07/27 01:14:43;;;;;;;4.95;2.08;;;13.20;99.90;;;;;;4916520;28;96419;-32
2022/07/27 01:17:09;;;;;;;2.88;2.00;;;13.30;99.90;;;;;;4917175;28;95233;-32
2022/07/27 01:19:35;;;;;;;3.72;1.60;;;13.30;99.90;;;;;;4918392;28;91948;-33
2022/07/27 01:22:02;;;;;;;2.22;2.03;;;13.30;99.90;;;;;;4917191;28;93859;-28
2022/07/27 01:24:27;;;;;;;2.70;1.90;;;13.30;99.90;;;;;;4916765;28;96046;-33
2022/07/27 01:26:53;;;;;;;2.65;2.05;;;13.30;99.90;;;;;;4917168;28;94770;-30
2022/07/27 01:29:19;;;;;;;2.03;1.85;;;13.30;99.90;;;;;;4917422;28;93463;-31
2022/07/27 01:31:44;;;;;;;4.25;2.17;;;13.40;99.90;;;;;;4917820;28;93538;-31
2022/07/27 01:34:10;;;;;;;4.38;1.90;;;13.30;99.90;;;;;;4920156;28;94686;-29
2022/07/27 01:36:35;;;;;;;2.33;1.30;;;13.30;99.90;;;;;;4920787;28;95198;-29
2022/07/27 01:39:01;;;;;;;3.30;2.47;;;13.40;99.90;;;;;;4921001;28;94431;-29
2022/07/27 01:41:27;;;;;;;2.45;2.25;;;13.30;99.90;;;;;;4920532;28;94204;-34
2022/07/27 01:43:52;;;;;;;2.05;1.70;;;13.40;99.90;;;;;;4920841;28;93986;-30
2022/07/27 01:46:18;;;;;;;1.98;1.77;;;13.40;99.90;;;;;;4920602;28;94042;-30
2022/07/27 01:48:43;;;;;;;13.70;2.35;;;13.40;99.90;;;;;;4921076;28;92151;-28
2022/07/27 01:51:09;;;;;;;5.18;2.42;;;13.40;99.90;;;;;;4919834;28;95029;-31
2022/07/27 01:53:34;;;;;;;2.83;1.75;;;13.40;99.90;;;;;;4920690;28;94901;-33
2022/07/27 01:56:00;;;;;;;5.80;2.35;;;13.40;99.90;;;;;;4920335;28;94642;-28
2022/07/27 01:58:26;;;;;;;2.42;2.10;;;13.40;99.90;;;;;;4920612;28;92607;-34
2022/07/27 02:00:51;;;;;;;5.50;2.15;;;13.30;99.90;;;;;;4920490;28;94600;-30
2022/07/27 02:03:17;;;;;;;2.78;1.83;;;13.30;99.90;;;;;;4919575;28;95436;-28
2022/07/27 02:05:43;;;;;;;4.13;1.80;;;13.30;99.90;;;;;;4920208;28;94025;-33
2022/07/27 02:08:08;;;;;;;4.47;1.40;;;13.30;99.90;;;;;;4920602;28;93053;-30
2022/07/27 02:10:35;;;;;;;6.88;2.10;;;13.30;99.90;;;;;;4920149;28;94175;-35
2022/07/27 02:13:01;;;;;;;2.45;1.73;;;13.30;99.90;;;;;;4919963;28;94943;-30
2022/07/27 02:15:28;;;;;;;3.00;1.73;;;13.30;99.90;;;;;;4919092;28;94800;-29
2022/07/27 02:17:54;;;;;;;3.28;2.30;;;13.20;99.90;;;;;;4920212;28;94474;-34
2022/07/27 02:20:24;;;;;;;3.35;1.83;;;13.20;99.90;;;;;;4919980;28;94422;-29
2022/07/27 02:22:51;;;;;;;5.97;2.17;;;13.20;99.90;;;;;;4920071;28;94619;-29
2022/07/27 02:25:18;;;;;;;2.33;1.50;;;13.10;99.90;;;;;;4919631;28;95596;-33
2022/07/27 02:27:44;;;;;;;3.47;1.55;;;13.10;99.90;;;;;;4920147;28;92852;-32
2022/07/27 02:30:11;;;;;;;6.40;2.60;;;13.00;99.90;;;;;;4919506;28;93074;-32
2022/07/27 02:32:39;;;;;;;3.33;2.08;;;13.00;99.90;;;;;;4920311;28;94856;-28
2022/07/27 02:35:05;;;;;;;8.10;2.83;;;12.90;99.90;;;;;;4919548;28;93140;-31
2022/07/27 02:37:31;;;;;;;3.17;1.70;;;12.80;99.90;;;;;;4920500;28;92637;-31
2022/07/27 02:39:56;;;;;;;2.33;2.13;;;12.80;99.90;;;;;;4919069;28;94056;-31
2022/07/27 02:42:22;;;;;;;1.77;1.67;;;12.80;99.90;;;;;;4919975;28;94700;-31
2022/07/27 02:44:48;;;;;;;2.80;2.28;;;12.70;99.90;;;;;;4919347;28;95759;-30
2022/07/27 02:47:13;;;;;;;5.05;1.77;;;12.70;99.90;;;;;;4919511;28;93776;-30
2022/07/27 02:49:39;;;;;;;9.57;2.03;;;12.60;99.90;;;;;;4919711;28;93141;-32
2022/07/27 02:52:05;;;;;;;5.00;1.73;;;12.60;99.90;;;;;;4918779;28;94532;-37
2022/07/27 02:54:31;;;;;;;6.72;2.75;;;12.60;99.90;;;;;;4919941;28;94559;-29
2022/07/27 02:56:58;;;;;;;2.30;1.23;;;12.50;99.90;;;;;;4920018;28;93559;-31
2022/07/27 02:59:24;;;;;;;2.73;2.50;;;12.50;99.90;;;;;;4919345;28;93054;-29
2022/07/27 03:01:50;;;;;;;2.92;1.90;;;12.50;99.90;;;;;;4919716;28;94593;-31
2022/07/27 03:04:16;;;;;;;3.28;2.22;;;12.40;99.90;;;;;;4918291;28;94995;-30
2022/07/27 03:06:43;;;;;;;4.30;2.60;;;12.40;99.90;;;;;;4919346;28;93893;-30
2022/07/27 03:09:09;;;;;;;2.67;1.92;;;12.40;99.90;;;;;;4919737;28;94677;-30
2022/07/27 03:11:35;;;;;;;2.97;1.42;;;12.30;99.90;;;;;;4919601;28;94646;-33
2022/07/27 03:14:00;;;;;;;3.60;2.13;;;12.30;99.90;;;;;;4919040;28;94789;-29
2022/07/27 03:16:26;;;;;;;2.30;1.95;;;12.30;99.90;;;;;;4919596;28;93289;-30
2022/07/27 03:18:52;;;;;;;3.83;1.75;;;12.30;99.90;;;;;;4918940;28;94780;-31
2022/07/27 03:21:17;;;;;;;2.53;1.88;;;12.30;99.90;;;;;;4919211;28;94151;-33
2022/07/27 03:23:43;;;;;;;3.58;1.67;;;12.30;99.90;;;;;;4919383;28;93780;-29
2022/07/27 03:26:09;;;;;;;1.90;1.80;;;12.20;99.90;;;;;;4919572;28;94708;-34
2022/07/27 03:28:35;;;;;;;3.13;1.95;;;12.20;99.90;;;;;;4918763;28;94145;-30
2022/07/27 03:31:01;;;;;;;6.15;3.05;;;12.20;99.90;;;;;;4920946;28;95034;-29
2022/07/27 03:33:26;;;;;;;3.80;1.95;;;12.10;99.90;;;;;;4924800;28;94987;-31
2022/07/27 03:35:52;;;;;;;4.30;2.40;;;12.10;99.90;;;;;;4925308;28;93233;-31
2022/07/27 03:38:18;;;;;;;2.60;1.75;;;12.10;99.90;;;;;;4924875;28;92910;-31
2022/07/27 03:40:44;;;;;;;4.55;1.92;;;12.00;99.90;;;;;;4924082;28;95533;-34
2022/07/27 03:43:10;;;;;;;7.07;1.85;;;12.00;99.90;;;;;;4922380;28;94452;-30
2022/07/27 03:45:35;;;;;;;10.13;2.40;;;12.00;99.90;;;;;;4922875;28;93035;-30
2022/07/27 03:48:01;;;;;;;2.75;1.70;;;12.00;99.90;;;;;;4923448;28;92707;-29
2022/07/27 03:50:27;;;;;;;2.17;1.80;;;12.00;99.90;;;;;;4922476;28;97011;-32
2022/07/27 03:52:52;;;;;;;4.20;2.28;;;11.90;99.90;;;;;;4917660;28;95749;-32
2022/07/27 03:55:19;;;;;;;4.43;2.45;;;11.90;99.90;;;;;;4917802;28;94473;-32
2022/07/27 03:57:45;;;;;;;7.25;2.35;;;11.90;99.90;;;;;;4919014;28;93544;-29
2022/07/27 04:00:12;;;;;;;3.03;2.67;;;11.90;99.90;;;;;;4918151;28;94815;-31
2022/07/27 04:02:41;;;;;;;3.53;2.75;;;11.90;99.90;;;;;;4919057;28;94510;-33
2022/07/27 04:05:08;;;;;;;4.90;2.35;;;11.90;99.90;;;;;;4918882;28;94748;-35
2022/07/27 04:07:33;;;;;;;7.10;3.05;;;11.90;99.90;;;;;;4918703;28;93418;-29
2022/07/27 04:09:59;;;;;;;3.92;2.55;;;11.90;99.90;;;;;;4918800;28;94013;-30
2022/07/27 04:12:24;;;;;;;2.67;2.40;;;11.90;99.90;;;;;;4918214;28;93733;-30
2022/07/27 04:14:50;;;;;;;3.42;2.78;;;11.90;99.90;;;;;;4918561;28;94110;-28
2022/07/27 04:17:16;;;;;;;4.00;2.53;;;11.90;99.90;;;;;;4917370;28;95246;-34
2022/07/27 04:19:42;;;;;;;3.65;2.25;;;12.00;99.90;;;;;;4917720;28;95271;-31
2022/07/27 04:22:07;;;;;;;5.65;2.88;;;12.00;99.90;;;;;;4917605;28;94590;-33
2022/07/27 04:24:33;;;;;;;4.43;2.83;;;12.10;99.90;;;;;;4918816;28;94430;-30
2022/07/27 04:26:59;;;;;;;3.47;2.65;;;12.10;99.90;;;;;;4918177;28;92660;-29
2022/07/27 04:29:24;;;;;;;2.17;1.95;;;12.10;99.90;;;;;;4918147;28;94703;-32
2022/07/27 04:31:50;;;;;;;4.63;3.67;;;12.20;99.90;;;;;;4917709;28;94850;-31
2022/07/27 04:34:15;;;;;;;3.40;2.35;;;12.20;99.90;;;;;;4918648;28;93150;-33
2022/07/27 04:36:41;;;;;;;4.95;2.45;;;12.30;99.90;;;;;;4918281;28;92995;-30
2022/07/27 04:39:08;;;;;;;3.13;2.60;;;12.30;99.90;;;;;;4917983;28;94889;-30
2022/07/27 04:41:33;;;;;;;4.93;2.63;;;12.40;99.90;;;;;;4921461;28;94287;-28
2022/07/27 04:43:59;;;;;;;3.28;2.30;;;12.40;99.90;;;;;;4922310;28;93342;-30
2022/07/27 04:46:26;;;;;;;8.52;2.90;;;12.50;99.90;;;;;;4920921;28;93494;-33
2022/07/27 04:48:51;;;;;;;5.28;2.25;;;12.50;99.90;;;;;;4919934;28;93646;-29
2022/07/27 04:51:17;;;;;;;7.18;3.20;;;12.50;99.90;;;;;;4920586;28;94290;-29
2022/07/27 04:53:43;;;;;;;5.43;1.92;;;12.50;99.90;;;;;;4920824;28;93370;-32
2022/07/27 04:56:09;;;;;;;4.97;2.95;;;12.60;99.90;;;;;;4919252;28;93500;-32
2022/07/27 04:58:35;;;;;;;2.72;2.35;;;12.60;99.90;;;;;;4919165;28;94074;-29
2022/07/27 05:01:01;;;;;;;3.15;2.42;;;12.70;99.90;;;;;;4917997;28;93943;-30
2022/07/27 05:03:27;;;;;;;4.78;2.17;;;12.70;99.90;;;;;;4917171;28;93460;-32
2022/07/27 05:05:52;;;;;;;4.95;2.55;;;12.80;99.90;;;;;;4917583;28;93443;-30
2022/07/27 05:08:19;;;;;;;3.30;2.28;;;12.80;99.90;;;;;;4919757;28;96061;-31
2022/07/27 05:10:45;;;;;;;7.35;2.75;;;12.80;99.90;;;;;;4920716;28;94659;-34
2022/07/27 05:13:11;;;;;;;6.85;2.95;;;12.90;99.90;;;;;;4920456;28;94550;-31
2022/07/27 05:15:37;;;;;;;5.25;3.03;;;12.90;99.90;;;;;;4920835;28;92922;-32
2022/07/27 05:18:02;;;;;;;3.38;2.13;;;13.00;99.90;;;;;;4921251;28;95258;-30
2022/07/27 05:20:28;;;;;;;5.72;2.63;;;13.00;99.90;;;;;;4920667;28;95136;-33
2022/07/27 05:22:54;;;;;;;3.58;1.98;;;13.00;99.90;;;;;;4903852;28;92899;-30
2022/07/27 05:25:28;;;;;;;6.05;2.53;;;13.10;99.90;;;;;;4921187;28;93229;-34
2022/07/27 05:27:54;;;;;;;2.67;2.42;;;13.10;99.90;;;;;;4920510;28;94796;-29
2022/07/27 05:30:22;;;;;;;8.25;1.73;;;13.20;99.90;;;;;;4919400;28;95238;-29
2022/07/27 05:32:48;;;;;;;8.50;2.33;;;13.30;99.90;;;;;;4920404;28;94090;-29
2022/07/27 05:35:14;;;;;;;4.63;2.80;;;13.30;99.90;;;;;;4920886;28;94021;-30
2022/07/27 05:37:39;;;;;;;4.15;2.38;;;13.40;99.90;;;;;;4921187;28;94780;-33
2022/07/27 05:40:07;;;;;;;2.10;1.60;;;13.40;99.90;;;;;;4920118;28;94739;-31
2022/07/27 05:42:33;;;;;;;4.10;2.07;;;13.50;99.90;;;;;;4920272;28;94498;-30
2022/07/27 05:44:59;;;;;;;5.68;2.63;;;13.50;99.90;;;;;;4920464;28;94773;-32
2022/07/27 05:47:24;;;;;;;2.92;1.95;;;13.60;99.90;;;;;;4920586;28;93596;-30
2022/07/27 05:49:50;;;;;;;4.30;1.77;;;13.80;99.90;;;;;;4920707;28;92885;-34
2022/07/27 05:52:15;;;;;;;5.07;2.00;;;13.90;99.90;;;;;;4920958;28;94320;-32
2022/07/27 05:54:42;;;;;;;6.28;2.30;;;14.10;99.90;;;;;;4925778;28;94351;-29
2022/07/27 05:57:08;;;;;;;6.10;1.60;;;14.20;99.90;;;;;;4927728;28;94874;-30
2022/07/27 05:59:35;;;;;;;7.80;2.42;;;14.30;99.90;;;;;;4930526;28;94604;-31
2022/07/27 06:02:01;;;;;;;7.78;3.00;;;14.40;99.90;;;;;;4932199;28;92630;-30
2022/07/27 06:04:26;;;;;;;14.65;3.28;;;14.50;99.90;;;;;;4933261;28;92174;-30
2022/07/27 06:09:36;;;;;;;10.10;2.05;;;14.70;99.90;;;;;;4933610;28;94519;-33
2022/07/27 06:12:02;;;;;;;3.60;2.47;;;14.80;99.90;;;;;;4933916;28;92973;-29
2022/07/27 06:14:28;;;;;;;17.20;4.15;;;14.80;99.90;;;;;;4930309;28;93608;-30
2022/07/27 06:16:53;;;;;;;4.65;2.40;;;14.90;99.90;;;;;;4932466;28;94675;-31
2022/07/27 06:19:19;;;;;;;3.53;1.75;;;14.90;99.90;;;;;;4931450;28;94653;-32
2022/07/27 06:21:44;;;;;;;6.57;2.28;;;15.00;99.90;;;;;;4933970;28;92177;-31
2022/07/27 06:24:10;;;;;;;19.85;2.88;;;15.10;99.90;;;;;;4933864;28;92901;-31
2022/07/27 06:26:36;;;;;;;5.63;2.45;;;15.20;99.90;;;;;;4933134;28;95270;-29
2022/07/27 06:29:02;;;;;;;5.43;2.00;;;15.20;99.90;;;;;;4934244;28;94122;-30
2022/07/27 06:31:29;;;;;;;7.20;1.83;;;15.20;99.90;;;;;;4933076;28;92107;-30
2022/07/27 06:33:55;;;;;;;7.78;2.08;;;15.20;99.90;;;;;;4933519;28;93462;-31
2022/07/27 06:36:21;;;;;;;12.00;2.58;;;15.20;99.90;;;;;;4933048;28;93529;-29
2022/07/27 06:38:47;;;;;;;8.85;2.70;;;15.30;99.90;;;;;;4933203;28;92781;-30
2022/07/27 06:41:13;;;;;;;3.13;2.60;;;15.20;99.90;;;;;;4916529;28;93396;-29
2022/07/27 06:43:39;;;;;;;6.13;2.38;;;15.20;99.90;;;;;;4930096;28;94347;-31
2022/07/27 06:46:06;;;;;;;11.25;2.83;;;15.30;99.90;;;;;;4932673;28;94534;-30
2022/07/27 06:48:32;;;;;;;10.02;3.00;;;15.30;99.90;;;;;;4920514;28;94522;-31
2022/07/27 06:50:58;;;;;;;4.00;2.75;;;15.30;99.90;;;;;;4917974;28;93236;-30
2022/07/27 06:53:25;;;;;;;5.00;2.67;;;15.40;99.90;;;;;;4918093;28;93453;-32
2022/07/27 06:55:51;;;;;;;8.00;2.05;;;15.40;99.90;;;;;;4918318;28;94857;-31
2022/07/27 06:58:17;;;;;;;5.80;3.03;;;15.40;99.90;;;;;;4917779;28;94469;-31
2022/07/27 07:00:43;;;;;;;2.50;2.05;;;15.40;99.90;;;;;;4918162;28;91399;-33
2022/07/27 07:03:10;;;;;;;3.55;2.85;;;15.40;99.90;;;;;;4917725;28;94124;-31
2022/07/27 07:05:41;;;;;;;4.32;2.70;;;15.40;99.90;;;;;;4928503;28;94337;-31
2022/07/27 07:08:13;;;;;;;2.85;1.80;;;15.40;99.90;;;;;;4928373;28;94699;-33
2022/07/27 07:10:40;;;;;;;5.55;2.17;;;15.40;99.90;;;;;;4918446;28;92693;-30
2022/07/27 07:13:07;;;;;;;2.95;1.73;;;15.40;99.90;;;;;;4916215;28;94759;-29
2022/07/27 07:15:34;;;;;;;6.85;2.30;;;15.40;99.90;;;;;;4918642;28;94493;-30
2022/07/27 07:18:02;;;;;;;1.70;1.42;;;15.40;99.90;;;;;;4918965;28;93610;-30
2022/07/27 07:20:29;;;;;;;2.10;1.52;;;15.40;99.90;;;;;;4917814;28;92662;-30
2022/07/27 07:22:55;;;;;;;13.15;3.05;;;15.40;99.90;;;;;;4917130;28;92139;-30
2022/07/27 07:25:20;;;;;;;3.45;1.48;;;15.40;99.90;;;;;;4916900;28;93833;-34
2022/07/27 07:27:46;;;;;;;2.55;2.08;;;15.20;99.90;;;;;;4916427;28;94134;-32
2022/07/27 07:30:12;;;;;;;6.68;2.40;;;15.10;99.90;;;;;;4915969;28;93128;-34
2022/07/27 07:32:38;;;;;;;3.42;1.70;;;15.00;99.90;;;;;;4916461;28;94338;-30
2022/07/27 07:35:04;;;;;;;3.80;1.33;;;15.00;99.90;;;;;;4916866;28;94677;-31
2022/07/27 07:37:31;;;;;;;4.38;1.83;;;15.10;99.90;;;;;;4917120;28;95398;-33
2022/07/27 07:39:57;;;;;;;4.90;1.52;;;15.10;99.90;;;;;;4917273;28;92332;-31
2022/07/27 07:42:22;;;;;;;4.85;1.83;;;15.20;99.90;;;;;;4916174;28;94278;-35
2022/07/27 07:44:48;;;;;;;61.38;7.90;;;15.30;99.90;;;;;;4917299;28;94943;-30
2022/07/27 07:47:14;;;;;;;4.50;1.65;;;15.40;99.90;;;;;;4917678;28;94715;-30
2022/07/27 07:49:39;;;;;;;3.25;1.55;;;15.50;99.90;;;;;;4917872;28;93048;-31
2022/07/27 07:52:05;;;;;;;3.72;2.35;;;15.60;99.90;;;;;;4916276;28;93533;-34
2022/07/27 07:54:31;;;;;;;7.95;2.00;;;15.70;99.90;;;;;;4916600;28;94567;-32
2022/07/27 07:56:56;;;;;;;4.20;1.70;;;15.90;99.90;;;;;;4916464;28;95102;-30
2022/07/27 07:59:22;;;;;;;2.53;1.60;;;16.00;99.90;;;;;;4916736;28;93361;-32
2022/07/27 08:01:48;;;;;;;1.63;1.52;;;16.20;99.90;;;;;;4916903;28;93107;-33
2022/07/27 08:04:13;;;;;;;15.88;1.83;;;16.30;99.90;;;;;;4915809;28;94724;-33
2022/07/27 08:06:39;;;;;;;3.35;1.83;;;16.50;99.90;;;;;;4916653;28;93196;-31
2022/07/27 08:09:05;;;;;;;2.78;1.33;;;16.70;99.90;;;;;;4916551;28;94344;-35
2022/07/27 08:11:31;;;;;;;5.13;1.40;;;16.90;99.90;;;;;;4916502;28;94902;-33
2022/07/27 08:13:57;;;;;;;9.13;2.03;;;17.10;99.90;;;;;;4916655;28;94014;-30
2022/07/27 08:16:23;;;;;;;1.80;1.00;;;17.30;99.90;;;;;;4915952;28;93836;-32
2022/07/27 08:18:49;;;;;;;3.83;1.73;;;17.60;99.90;;;;;;4917014;28;92087;-31
2022/07/27 08:21:14;;;;;;;7.72;1.83;;;17.90;99.90;;;;;;4915770;28;94431;-31
2022/07/27 08:23:40;;;;;;;32.47;5.93;;;18.20;99.90;;;;;;4916046;28;94642;-35
2022/07/27 08:26:06;;;;;;;5.60;2.03;;;18.50;99.90;;;;;;4916301;28;94411;-31
2022/07/27 08:28:31;;;;;;;5.18;1.52;;;18.70;99.90;;;;;;4916321;28;92574;-34
2022/07/27 08:30:57;;;;;;;5.65;1.83;;;18.70;99.90;;;;;;4916034;28;94252;-30
2022/07/27 08:33:23;;;;;;;2.90;1.40;;;18.80;99.90;;;;;;4915414;28;94888;-32
2022/07/27 08:35:49;;;;;;;4.50;2.00;;;19.00;99.90;;;;;;4915599;28;95052;-31
2022/07/27 08:38:14;;;;;;;3.50;1.52;;;19.30;99.90;;;;;;4922294;28;92753;-30
2022/07/27 08:40:40;;;;;;;3.13;1.10;;;19.70;99.90;;;;;;4918120;28;92868;-31
2022/07/27 08:43:06;;;;;;;3.55;1.65;;;19.90;99.90;;;;;;4915847;28;94618;-31
2022/07/27 08:45:33;;;;;;;6.03;1.80;;;20.00;99.90;;;;;;4915453;28;95287;-32
2022/07/27 08:47:58;;;;;;;2.53;1.50;;;20.30;99.90;;;;;;4916756;28;93638;-32
2022/07/27 08:50:29;;;;;;;7.80;1.92;;;20.60;99.90;;;;;;4916477;28;94269;-32
2022/07/27 08:52:56;;;;;;;8.85;1.83;;;20.70;99.90;;;;;;4916379;28;94406;-32
2022/07/27 08:55:22;;;;;;;6.50;1.25;;;20.80;99.90;;;;;;4916514;28;94671;-32
2022/07/27 08:57:49;;;;;;;1.58;1.23;;;20.90;99.90;;;;;;4917392;28;94563;-33
2022/07/27 09:00:15;;;;;;;1.45;1.35;;;20.80;99.90;;;;;;4917601;28;94532;-33
2022/07/27 09:02:43;;;;;;;1.52;1.10;;;20.80;99.90;;;;;;4917333;28;97001;-31
2022/07/27 09:05:09;;;;;;;5.40;1.13;;;20.70;99.90;;;;;;4922370;28;93854;-31
2022/07/27 09:07:35;;;;;;;4.10;1.27;;;20.60;99.90;;;;;;4929535;28;92145;-31
2022/07/27 09:10:02;;;;;;;4.40;1.40;;;20.60;99.90;;;;;;4928890;28;93197;-31
2022/07/27 09:12:29;;;;;;;2.03;1.40;;;20.30;99.90;;;;;;4927824;28;94213;-32
2022/07/27 09:15:05;;;;;;;3.28;1.67;;;20.10;99.90;;;;;;4929427;28;94570;-32
2022/07/27 09:17:30;;;;;;;1.40;1.08;;;19.70;99.90;;;;;;4928865;28;92974;-30
2022/07/27 09:20:03;;;;;;;3.20;1.75;;;19.20;99.90;;;;;;4928976;28;93306;-32
2022/07/27 09:22:49;;;;;;;1.70;1.60;;;18.60;99.90;;;;;;4926218;28;94484;-34
2022/07/27 09:25:17;;;;;;;6.28;2.78;;;18.10;99.90;;;;;;4918577;28;94648;-32
2022/07/27 09:27:44;;;;;;;5.97;2.73;;;17.70;99.90;;;;;;4920481;28;92562;-32
2022/07/27 09:30:13;;;;;;;2.15;1.75;;;17.40;99.90;;;;;;4915434;28;94302;-31
2022/07/27 09:32:52;;;;;;;7.10;1.88;;;17.10;99.90;;;;;;4915279;28;94785;-30
2022/07/27 09:35:24;;;;;;;5.05;2.28;;;16.90;99.90;;;;;;4914850;28;94586;-30
2022/07/27 09:37:49;;;;;;;3.95;1.85;;;16.70;99.90;;;;;;4915271;28;92924;-32
2022/07/27 09:40:17;;;;;;;4.25;2.42;;;16.60;99.90;;;;;;4910041;28;94525;-31
2022/07/27 09:42:43;;;;;;;;;;;16.60;99.90;;;;;;4922960;28;94461;-32
2022/07/27 09:45:34;;;;;;;2.80;1.58;;;16.50;99.90;;;;;;4928308;28;94701;-29
2022/07/27 09:48:14;;;;;;;3.75;1.27;;;16.60;99.90;;;;;;4918977;28;94660;-31
2022/07/27 09:50:43;;;;;;;3.28;1.27;;;16.80;99.90;;;;;;4919031;28;92664;-32
2022/07/27 09:53:18;;;;;;;3.72;1.63;;;16.90;99.90;;;;;;4921110;28;94304;-32
2022/07/27 09:55:45;;;;;;;2.90;2.15;;;17.00;99.90;;;;;;4928213;28;93787;-31
2022/07/27 09:58:11;;;;;;;4.00;2.10;;;17.20;99.90;;;;;;4925805;28;92492;-32
2022/07/27 10:00:37;;;;;;;2.58;1.88;;;17.30;99.90;;;;;;4925203;28;93048;-33
2022/07/27 10:03:03;;;;;;;3.50;1.83;;;17.50;99.90;;;;;;4923439;28;94078;-30
2022/07/27 10:05:28;;;;;;;5.57;1.98;;;17.70;99.90;;;;;;4929635;28;94004;-31
2022/07/27 10:07:54;;;;;;;4.95;1.60;;;17.90;99.90;;;;;;4930000;28;94162;-30
2022/07/27 10:10:21;;;;;;;2.72;2.50;;;18.10;99.90;;;;;;4930033;28;95102;-32
2022/07/27 10:12:47;;;;;;;4.15;2.63;;;18.20;99.90;;;;;;4929951;28;93214;-31
2022/07/27 10:15:13;;;;;;;2.30;1.42;;;18.40;99.90;;;;;;4929783;28;94564;-30
2022/07/27 10:17:43;;;;;;;5.65;1.67;;;18.50;99.90;;;;;;4928556;28;92320;-32
2022/07/27 10:20:10;;;;;;;6.85;1.85;;;18.60;99.90;;;;;;4928637;28;92150;-33
2022/07/27 10:22:58;;;;;;;2.28;1.67;;;18.70;99.90;;;;;;4929408;28;94597;-33
2022/07/27 10:25:27;;;;;;;5.57;1.42;;;18.80;99.90;;;;;;4929014;28;94997;-32
2022/07/27 10:28:15;;;;;;;1.48;1.38;;;18.90;99.90;;;;;;4928160;28;92994;-33
2022/07/27 10:30:40;;;;;;;1.65;1.00;;;19.10;99.90;;;;;;4926422;28;93539;-34
2022/07/27 10:33:14;;;;;;;1.10;1.00;;;19.30;99.90;;;;;;4923333;28;94613;-32
2022/07/27 10:35:40;;;;;;;2.72;0.75;;;19.30;99.90;;;;;;4929027;28;94943;-31
2022/07/27 10:38:07;;;;;;;5.05;1.05;;;19.40;99.90;;;;;;4919941;28;94950;-31
2022/07/27 10:40:33;;;;;;;2.60;1.10;;;19.60;99.90;;;;;;4917725;28;93615;-30
2022/07/27 10:43:07;;;;;;;1.35;1.25;;;19.60;99.90;;;;;;4919997;28;94711;-31
2022/07/27 10:45:44;;;;;;;2.88;1.70;;;19.70;99.90;;;;;;4931485;28;94221;-30
2022/07/27 10:48:37;;;;;;;6.15;1.35;;;19.80;99.90;;;;;;4917860;28;92570;-32
2022/07/27 10:51:05;;;;;;;3.08;1.42;;;19.90;99.90;;;;;;4917073;28;95404;-33
2022/07/27 10:53:34;;;;;;;2.15;1.30;;;19.90;99.90;;;;;;4916970;28;94555;-34
2022/07/27 10:56:00;;;;;;;1.73;1.30;;;19.90;99.90;;;;;;4916937;28;94777;-32
2022/07/27 10:58:27;;;;;;;2.60;1.58;;;19.90;99.90;;;;;;4916373;28;93493;-31
2022/07/27 11:00:52;;;;;;;3.88;1.77;;;20.10;99.90;;;;;;4916681;28;93096;-32
2022/07/27 11:03:21;;;;;;;3.05;1.63;;;20.00;99.90;;;;;;4915221;28;95359;-32
2022/07/27 11:06:09;;;;;;;1.33;1.23;;;20.00;99.90;;;;;;4914623;28;94809;-33
2022/07/27 11:08:39;;;;;;;;;;;19.90;99.90;;;;;;4918798;28;92733;-32
2022/07/27 11:11:06;;;;;;;6.72;1.58;;;20.10;99.90;;;;;;4920976;28;92400;-32
2022/07/27 11:13:33;;;;;;;3.03;1.20;;;20.20;99.90;;;;;;4917951;28;93982;-30
2022/07/27 11:16:01;;;;;;;1.38;1.10;;;20.20;99.90;;;;;;4921065;28;94547;-31
2022/07/27 11:18:27;;;;;;;;;;;20.20;99.90;;;;;;4922609;28;94265;-30
2022/07/27 11:21:11;;;;;;;13.95;2.42;;;20.30;99.90;;;;;;4928016;28;93082;-31
2022/07/27 11:23:36;;;;;;;4.10;1.10;;;20.50;99.90;;;;;;4927726;28;95260;-33
2022/07/27 11:26:02;;;;;;;6.63;1.65;;;20.40;99.90;;;;;;4919285;28;94701;-32
2022/07/27 11:28:32;;;;;;;4.88;1.40;;;20.40;99.90;;;;;;4925039;28;93331;-30
2022/07/27 11:30:59;;;;;;;2.08;1.70;;;20.20;99.90;;;;;;4929752;28;93265;-34
2022/07/27 11:33:25;;;;;;;3.50;1.48;;;20.10;99.90;;;;;;4923131;28;94034;-31
2022/07/27 11:35:56;;;;;;;2.03;1.08;;;19.90;99.90;;;;;;4918654;28;94640;-31
2022/07/27 11:38:22;;;;;;;3.20;1.30;;;19.80;99.90;;;;;;4921854;28;93343;-31
2022/07/27 11:40:50;;;;;;;3.22;1.67;;;19.70;99.90;;;;;;4925377;28;94850;-31
2022/07/27 11:43:35;;;;;;;5.93;3.15;;;19.70;99.90;;;;;;4926411;28;94918;-31
2022/07/27 11:46:13;;;;;;;2.42;1.20;;;19.60;99.90;;;;;;4924849;28;94313;-30
2022/07/27 11:49:08;;;;;;;1.30;1.20;;;19.60;99.90;;;;;;4927004;28;92834;-31
2022/07/27 11:51:45;;;;;;;40.25;7.65;;;19.70;99.90;;;;;;4919460;28;93169;-34
2022/07/27 11:54:18;;;;;;;1.33;1.20;;;19.80;99.90;;;;;;4929240;28;95373;-32
2022/07/27 11:56:48;;;;;;;3.20;1.45;;;19.90;99.90;;;;;;4929296;28;95080;-33
2022/07/27 11:59:22;;;;;;;3.75;1.20;;;20.00;99.90;;;;;;4928116;28;93145;-31
2022/07/27 12:01:51;;;;;;;3.28;1.40;;;20.00;99.90;;;;;;4926724;28;93634;-31
2022/07/27 12:04:18;;;;;;;1.73;1.48;;;20.20;99.90;;;;;;4926103;28;94639;-33
2022/07/27 12:06:47;;;;;;;1.80;1.15;;;20.30;99.90;;;;;;4926025;28;94208;-31
2022/07/27 12:09:15;;;;;;;4.45;1.20;;;20.30;99.90;;;;;;4924142;28;93138;-31
2022/07/27 12:11:49;;;;;;;2.63;1.10;;;20.30;99.90;;;;;;4923813;28;92748;-31
2022/07/27 12:14:26;;;;;;;3.08;1.48;;;20.10;99.90;;;;;;4959973;23;94430;-30
2022/07/27 12:16:54;;;;;;;4.35;1.90;;;19.90;99.90;;;;;;4926735;28;94906;-33
2022/07/27 12:19:22;;;;;;;;;;;19.80;99.90;;;;;;4920463;28;92805;-31
2022/07/27 12:21:53;;;;;;;3.88;1.00;;;19.70;99.90;;;;;;4921834;28;92548;-31
2022/07/27 12:24:19;;;;;;;3.00;1.00;;;19.50;99.90;;;;;;4927346;28;92637;-30
2022/07/27 12:27:07;;;;;;;2.50;1.20;;;19.30;99.90;;;;;;4918380;28;94441;-32
2022/07/27 12:29:52;;;;;;;5.80;1.83;;;19.20;99.90;;;;;;4921077;28;94872;-32
2022/07/27 12:32:17;;;;;;;2.45;1.45;;;19.10;99.90;;;;;;4916981;28;94797;-31
2022/07/27 12:34:43;;;;;;;5.70;1.42;;;19.10;99.90;;;;;;4917884;28;94750;-33
2022/07/27 12:37:12;;;;;;;5.28;1.67;;;19.10;99.90;;;;;;4917711;28;94292;-31
2022/07/27 12:39:42;;;;;;;14.15;3.72;;;19.30;99.90;;;;;;4919179;28;94054;-30
2022/07/27 12:42:11;;;;;;;2.35;1.27;;;19.30;99.90;;;;;;4921488;28;92187;-34
2022/07/27 12:44:41;;;;;;;1.77;1.33;;;19.40;99.90;;;;;;4916699;28;95121;-33
2022/07/27 12:50:09;;;;;;;4.32;1.98;;;19.30;99.80;;;;;;4919329;28;92462;-31
2022/07/27 12:52:40;;;;;;;3.33;1.42;;;19.40;99.00;;;;;;4921254;28;93147;-32
2022/07/27 12:55:07;;;;;;;1.63;1.30;;;19.40;97.80;;;;;;4923620;28;97014;-30
2022/07/27 12:57:33;;;;;;;6.25;1.38;;;19.40;97.90;;;;;;4922676;28;94383;-30